Time;durP1;ratioP1;P1;durP2;ratioP2;P2;SDS_P1;SDS_P2;PMS_P1;PMS_P2;Temp;Humidity;BMP_temperature;BMP_pressure;BME280_temperature;BME280_humidity;BME280_pressure;Samples;Min_cycle;Max_cycle;Signal;HPM_P1;HPM_P2
2021/07/14 06:46:43;;;;;;;5.90;4.07;;;28.60;45.30;;;;;;3854588;37;20077;-73
2021/07/14 06:49:10;;;;;;;6.12;3.80;;;27.10;52.60;;;;;;4394143;32;20093;-72
2021/07/14 06:51:36;;;;;;;5.07;3.92;;;27.00;52.10;;;;;;4380384;32;20086;-67
2021/07/14 06:54:02;;;;;;;5.40;3.75;;;27.40;51.10;;;;;;4405279;32;20523;-69
2021/07/14 06:56:28;;;;;;;7.37;4.25;;;27.20;50.70;;;;;;4378828;32;20081;-72
2021/07/14 06:58:54;;;;;;;6.10;3.92;;;26.70;52.40;;;;;;4403293;32;20508;-72
2021/07/14 07:01:21;;;;;;;5.60;3.87;;;27.10;51.10;;;;;;4399179;32;20607;-75
2021/07/14 07:03:47;;;;;;;7.05;3.83;;;27.50;50.50;;;;;;4404561;32;20080;-77
2021/07/14 07:06:13;;;;;;;4.53;3.60;;;27.70;50.10;;;;;;4367855;32;20097;-71
2021/07/14 07:08:39;;;;;;;5.80;3.53;;;27.30;49.60;;;;;;4383814;32;20058;-77
2021/07/14 07:11:05;;;;;;;6.07;4.05;;;27.60;50.30;;;;;;4385829;32;20105;-72
2021/07/14 07:13:32;;;;;;;7.37;4.37;;;27.50;49.70;;;;;;4384414;32;20073;-72
2021/07/14 07:15:59;;;;;;;6.28;3.72;;;27.50;49.90;;;;;;4390303;32;20065;-74
2021/07/14 07:18:25;;;;;;;4.60;3.45;;;27.80;49.00;;;;;;4389602;32;20105;-79
2021/07/14 07:20:51;;;;;;;5.55;4.00;;;27.90;48.20;;;;;;4370932;32;20501;-75
2021/07/14 07:23:17;;;;;;;6.28;4.15;;;27.40;49.50;;;;;;4385015;32;20653;-74
2021/07/14 07:25:44;;;;;;;5.07;3.70;;;27.30;49.70;;;;;;4402029;32;20154;-73
2021/07/14 07:28:15;;;;;;;5.82;3.92;;;27.30;49.40;;;;;;4370520;32;20108;-74
2021/07/14 07:30:42;;;;;;;6.35;4.00;;;27.00;50.10;;;;;;4384810;32;20171;-73
2021/07/14 07:33:08;;;;;;;5.12;3.80;;;27.20;49.30;;;;;;4388241;32;20508;-72
2021/07/14 07:35:34;;;;;;;6.43;3.55;;;27.40;48.30;;;;;;4371989;32;20490;-70
2021/07/14 07:38:00;;;;;;;5.87;3.87;;;27.90;48.10;;;;;;4389503;32;20069;-70
2021/07/14 07:40:28;;;;;;;4.68;3.78;;;28.10;47.60;;;;;;4374089;32;20162;-64
2021/07/14 07:42:54;;;;;;;4.60;3.80;;;27.30;48.10;;;;;;4376246;32;20086;-73
2021/07/14 07:45:20;;;;;;;5.22;4.10;;;28.20;47.90;;;;;;4384084;32;20470;-75
2021/07/14 07:47:47;;;;;;;5.53;3.35;;;28.60;44.50;;;;;;4360978;32;20093;-73
2021/07/14 07:50:13;;;;;;;5.18;3.70;;;28.40;46.40;;;;;;4377222;32;20079;-72
2021/07/14 07:52:39;;;;;;;4.78;3.47;;;28.00;45.10;;;;;;4384681;32;20449;-74
2021/07/14 07:55:10;;;;;;;5.97;4.10;;;28.00;45.10;;;;;;4362310;32;20090;-74
2021/07/14 07:57:38;;;;;;;5.65;4.25;;;28.00;46.00;;;;;;4379848;32;20093;-73
2021/07/14 08:00:10;;;;;;;6.18;3.87;;;27.80;45.60;;;;;;4378727;32;20503;-73
2021/07/14 08:02:39;;;;;;;5.30;3.50;;;27.70;46.40;;;;;;4372149;32;20146;-72
2021/07/14 08:05:06;;;;;;;6.20;3.80;;;27.40;47.40;;;;;;4378854;32;20548;-73
2021/07/14 08:07:33;;;;;;;4.80;3.70;;;28.50;44.90;;;;;;4363591;32;20158;-75
2021/07/14 08:09:59;;;;;;;7.65;3.62;;;28.60;45.40;;;;;;4379194;32;20072;-75
2021/07/14 08:12:25;;;;;;;4.82;3.50;;;28.60;44.20;;;;;;4355735;32;20153;-75
2021/07/14 08:14:51;;;;;;;5.28;4.00;;;27.80;47.00;;;;;;4393280;32;20155;-70
2021/07/14 08:17:17;;;;;;;5.07;3.75;;;27.50;47.50;;;;;;4379714;32;20077;-75
2021/07/14 08:19:43;;;;;;;4.78;3.42;;;28.10;45.20;;;;;;4366230;32;20075;-78
2021/07/14 08:22:10;;;;;;;4.72;3.55;;;28.10;45.20;;;;;;4384948;32;20157;-80
2021/07/14 08:24:36;;;;;;;4.78;3.67;;;28.90;43.60;;;;;;4356938;32;20186;-79
2021/07/14 08:27:02;;;;;;;4.60;3.80;;;28.30;44.80;;;;;;4384851;32;20074;-76
2021/07/14 08:29:28;;;;;;;5.10;3.65;;;27.40;47.50;;;;;;4395018;32;20085;-72
2021/07/14 08:31:54;;;;;;;7.68;3.58;;;28.40;46.40;;;;;;4392733;32;20085;-74
2021/07/14 08:34:21;;;;;;;5.75;3.58;;;28.20;46.10;;;;;;4362238;32;20114;-73
2021/07/14 08:36:47;;;;;;;6.05;4.00;;;28.10;44.60;;;;;;4353490;32;20076;-77
2021/07/14 08:39:13;;;;;;;4.75;3.65;;;28.10;43.70;;;;;;4346714;32;20524;-77
2021/07/14 08:41:44;;;;;;;4.47;3.75;;;28.60;42.80;;;;;;4365302;32;20070;-72
2021/07/14 08:44:14;;;;;;;6.82;4.07;;;28.90;42.90;;;;;;4343667;32;20062;-73
2021/07/14 08:46:41;;;;;;;6.70;3.80;;;28.40;41.70;;;;;;4351904;32;20143;-72
2021/07/14 08:49:07;;;;;;;4.25;3.47;;;28.10;43.70;;;;;;4353766;32;20155;-73
2021/07/14 08:51:34;;;;;;;5.22;3.70;;;28.20;44.30;;;;;;4392218;32;20081;-72
2021/07/14 08:54:00;;;;;;;5.43;3.95;;;28.60;44.00;;;;;;4358076;32;20123;-79
2021/07/14 08:56:27;;;;;;;4.68;3.60;;;28.10;44.60;;;;;;4353922;32;20066;-71
2021/07/14 08:58:53;;;;;;;4.78;3.70;;;28.50;45.00;;;;;;4358112;32;20073;-73
2021/07/14 09:01:19;;;;;;;4.78;3.95;;;28.90;43.20;;;;;;4364690;32;20072;-76
2021/07/14 09:03:45;;;;;;;6.70;3.87;;;28.20;46.30;;;;;;4353320;32;20535;-77
2021/07/14 09:06:11;;;;;;;5.85;3.42;;;28.70;45.70;;;;;;4367017;32;20073;-75
2021/07/14 09:08:38;;;;;;;5.07;3.83;;;28.80;42.60;;;;;;4365160;32;20076;-74
2021/07/14 09:11:06;;;;;;;5.12;3.80;;;28.90;42.50;;;;;;4353034;32;20597;-78
2021/07/14 09:13:37;;;;;;;4.57;3.72;;;29.10;42.90;;;;;;4360796;32;20522;-70
2021/07/14 09:16:04;;;;;;;5.10;4.05;;;28.60;43.00;;;;;;4371554;32;20074;-75
2021/07/14 09:18:31;;;;;;;5.57;4.00;;;28.40;42.70;;;;;;4361348;32;20093;-76
2021/07/14 09:20:59;;;;;;;6.25;3.60;;;28.60;43.60;;;;;;4356640;32;20077;-75
2021/07/14 09:23:30;;;;;;;6.85;4.03;;;28.90;42.60;;;;;;4365945;32;20080;-73
2021/07/14 09:26:00;;;;;;;6.62;4.12;;;28.60;42.60;;;;;;4376808;32;20062;-73
2021/07/14 09:28:33;;;;;;;6.68;3.53;;;28.50;42.80;;;;;;4391393;32;20459;-75
2021/07/14 09:31:10;;;;;;;8.45;3.67;;;28.90;42.40;;;;;;4370438;32;20097;-71
2021/07/14 09:33:40;;;;;;;5.65;3.80;;;29.50;41.80;;;;;;4365578;32;20105;-70
2021/07/14 09:36:06;;;;;;;4.62;3.87;;;29.50;41.20;;;;;;4357088;32;20146;-72
2021/07/14 09:38:35;;;;;;;5.25;4.22;;;28.50;42.00;;;;;;4365381;32;20089;-71
2021/07/14 09:41:04;;;;;;;4.45;3.80;;;28.40;43.30;;;;;;4369168;32;20537;-75
2021/07/14 09:43:39;;;;;;;4.95;3.72;;;28.40;44.20;;;;;;4362938;32;20081;-72
2021/07/14 09:46:09;;;;;;;4.50;3.70;;;29.00;41.30;;;;;;4365116;32;20519;-72
2021/07/14 09:48:47;;;;;;;9.20;4.62;;;30.00;38.40;;;;;;4364516;32;20078;-75
2021/07/14 09:51:22;;;;;;;6.75;4.25;;;30.10;39.40;;;;;;4367377;32;20094;-78
2021/07/14 09:53:53;;;;;;;5.23;3.70;;;28.80;41.50;;;;;;4372211;32;20141;-76
2021/07/14 09:56:22;;;;;;;6.25;3.72;;;29.00;41.30;;;;;;4377872;32;20527;-84
2021/07/14 09:59:10;;;;;;;5.70;3.92;;;28.90;42.50;;;;;;4378473;32;20141;-74
2021/07/14 10:01:45;;;;;;;4.57;3.75;;;28.70;40.50;;;;;;4369920;32;20157;-70
2021/07/14 10:04:13;;;;;;;6.35;3.75;;;28.70;41.20;;;;;;4366510;32;20168;-73
2021/07/14 10:06:39;;;;;;;4.55;3.83;;;28.80;39.60;;;;;;4369905;32;20156;-73
2021/07/14 10:09:05;;;;;;;5.78;3.53;;;29.20;41.20;;;;;;4375930;32;20162;-69
2021/07/14 10:11:34;;;;;;;4.85;3.47;;;28.50;41.20;;;;;;4369220;32;20598;-74
2021/07/14 10:14:05;;;;;;;5.30;4.07;;;29.10;39.90;;;;;;4377581;32;20067;-72
2021/07/14 10:16:36;;;;;;;5.15;3.40;;;29.00;39.10;;;;;;4377902;32;20065;-80
2021/07/14 10:19:12;;;;;;;5.80;3.53;;;28.90;39.20;;;;;;4381018;32;20062;-74
2021/07/14 10:21:42;;;;;;;;;;;29.20;39.40;;;;;;4373577;32;20069;-69
2021/07/14 10:24:10;;;;;;;3.47;3.00;;;28.90;39.90;;;;;;4369163;32;19997;-72
2021/07/14 10:26:38;;;;;;;4.45;3.50;;;28.80;39.50;;;;;;4356190;32;20084;-71
2021/07/14 10:29:04;;;;;;;4.68;3.60;;;28.70;38.30;;;;;;4370310;32;20081;-73
2021/07/14 10:31:32;;;;;;;6.50;3.65;;;29.50;37.20;;;;;;4362338;32;20110;-71
2021/07/14 10:33:58;;;;;;;6.07;3.40;;;29.40;36.30;;;;;;4364806;32;20093;-66
2021/07/14 10:36:35;;;;;;;5.10;3.20;;;29.40;36.30;;;;;;4336135;32;20579;-70
2021/07/14 10:39:17;;;;;;;4.12;3.42;;;29.10;36.70;;;;;;4366698;32;20184;-78
2021/07/14 10:41:44;;;;;;;4.12;3.05;;;29.50;36.50;;;;;;4374462;32;20154;-71
2021/07/14 10:44:10;;;;;;;6.95;3.20;;;30.20;35.50;;;;;;4380235;32;20077;-72
2021/07/14 10:46:38;;;;;;;6.65;3.20;;;30.40;34.10;;;;;;4354958;32;20089;-75
2021/07/14 10:49:06;;;;;;;6.65;3.40;;;29.80;33.10;;;;;;4361973;32;20069;-72
2021/07/14 10:51:33;;;;;;;6.15;2.85;;;29.80;34.00;;;;;;4363061;32;20069;-71
2021/07/14 10:54:04;;;;;;;4.75;3.15;;;29.80;33.20;;;;;;4349546;32;20158;-72
2021/07/14 10:56:42;;;;;;;4.60;3.20;;;29.10;33.70;;;;;;4355793;32;20082;-71
2021/07/14 10:59:09;;;;;;;3.78;2.75;;;29.80;32.10;;;;;;4362314;32;20061;-71
2021/07/14 11:01:45;;;;;;;4.50;3.30;;;30.60;30.80;;;;;;4360810;32;20080;-75
2021/07/14 11:04:34;;;;;;;4.32;3.10;;;30.10;30.80;;;;;;4361225;32;20055;-74
2021/07/14 11:07:06;;;;;;;5.72;2.87;;;29.80;32.10;;;;;;4379388;32;20444;-73
2021/07/14 11:09:47;;;;;;;4.97;2.90;;;29.80;31.40;;;;;;4345812;32;20092;-75
2021/07/14 11:12:30;;;;;;;4.32;3.17;;;29.70;31.30;;;;;;4367075;32;20503;-70
2021/07/14 11:15:00;;;;;;;3.80;2.70;;;30.10;30.30;;;;;;4373246;32;20066;-77
2021/07/14 11:17:31;;;;;;;12.93;3.17;;;29.80;30.90;;;;;;4338744;32;20508;-72
2021/07/14 11:20:12;;;;;;;3.42;2.80;;;29.60;31.30;;;;;;4357181;32;20533;-76
2021/07/14 11:22:45;;;;;;;3.55;2.70;;;30.30;31.40;;;;;;4348910;32;20634;-75
2021/07/14 11:25:20;;;;;;;4.70;2.90;;;30.60;30.40;;;;;;4364101;32;20065;-84
2021/07/14 11:27:52;;;;;;;5.68;2.75;;;30.10;31.30;;;;;;4367021;32;20568;-69
2021/07/14 11:30:38;;;;;;;3.60;2.80;;;30.20;30.80;;;;;;4373213;32;20197;-73
2021/07/14 11:33:05;;;;;;;;;;;29.90;30.10;;;;;;4375708;32;20566;-71
2021/07/14 11:35:40;;;;;;;6.07;2.85;;;30.40;29.40;;;;;;4370570;32;20054;-73
2021/07/14 11:38:18;;;;;;;3.22;2.87;;;29.40;30.70;;;;;;4364817;32;20105;-73
2021/07/14 11:40:53;;;;;;;4.65;3.00;;;29.70;30.50;;;;;;4349849;32;20446;-76
2021/07/14 11:43:23;;;;;;;3.53;2.72;;;29.80;32.50;;;;;;4354830;32;20711;-71
2021/07/14 11:45:54;;;;;;;3.85;2.70;;;30.10;31.20;;;;;;4374805;32;20158;-71
2021/07/14 11:48:26;;;;;;;5.25;2.95;;;30.40;30.30;;;;;;4374712;32;20467;-73
2021/07/14 11:50:57;;;;;;;4.43;2.78;;;30.10;30.30;;;;;;4381031;32;20070;-75
2021/07/14 11:53:35;;;;;;;4.68;2.60;;;30.00;29.70;;;;;;4360100;32;20187;-74
2021/07/14 11:56:28;;;;;;;3.90;2.80;;;29.70;30.00;;;;;;4382782;32;20089;-72
2021/07/14 11:59:28;;;;;;;3.80;2.80;;;29.70;29.20;;;;;;4381133;32;20074;-69
2021/07/14 12:02:19;;;;;;;3.78;2.90;;;30.00;29.40;;;;;;4367047;32;20132;-65
2021/07/14 12:05:06;;;;;;;4.97;2.65;;;30.50;29.80;;;;;;4370828;32;20101;-71
2021/07/14 12:07:40;;;;;;;3.87;2.53;;;31.30;29.30;;;;;;4361705;32;20108;-66
2021/07/14 12:10:16;;;;;;;14.07;3.17;;;30.10;28.10;;;;;;4369309;32;20121;-66
2021/07/14 12:12:46;;;;;;;4.72;2.78;;;30.10;29.70;;;;;;4371556;32;20557;-70
2021/07/14 12:15:12;;;;;;;4.57;2.87;;;29.90;29.70;;;;;;4370894;32;20436;-70
2021/07/14 12:17:38;;;;;;;11.12;3.10;;;30.90;28.80;;;;;;4358807;32;20178;-72
2021/07/14 12:20:06;;;;;;;2.90;2.55;;;30.60;29.00;;;;;;4371163;32;20073;-71
2021/07/14 12:22:33;;;;;;;3.67;2.85;;;30.00;28.20;;;;;;4378610;32;20154;-70
2021/07/14 12:25:12;;;;;;;4.47;3.12;;;29.80;28.80;;;;;;4369141;32;20432;-69
2021/07/14 12:27:41;;;;;;;3.22;2.70;;;29.90;28.70;;;;;;4363324;32;20152;-67
2021/07/14 12:30:28;;;;;;;4.37;2.90;;;30.40;28.40;;;;;;4359583;32;20101;-69
2021/07/14 12:32:56;;;;;;;5.75;2.70;;;30.80;27.90;;;;;;4381376;32;20209;-66
2021/07/14 12:35:33;;;;;;;4.82;2.83;;;30.70;28.10;;;;;;4370230;32;20074;-71
2021/07/14 12:38:06;;;;;;;4.07;2.80;;;30.30;27.80;;;;;;4368595;32;20092;-72
2021/07/14 12:40:45;;;;;;;4.62;2.75;;;30.20;28.40;;;;;;4371791;32;20081;-68
2021/07/14 12:43:12;;;;;;;4.68;2.90;;;29.90;28.70;;;;;;4375508;32;20526;-68
2021/07/14 12:45:43;;;;;;;6.05;3.12;;;30.10;28.50;;;;;;4373250;32;20069;-66
2021/07/14 12:48:25;;;;;;;5.60;3.22;;;30.40;28.00;;;;;;4365455;32;20073;-67
2021/07/14 12:50:53;;;;;;;5.32;2.90;;;30.50;28.10;;;;;;4371865;32;20105;-67
2021/07/14 12:53:20;;;;;;;3.85;2.53;;;30.70;27.60;;;;;;4384629;32;20069;-68
2021/07/14 12:55:47;;;;;;;3.62;2.78;;;30.70;26.90;;;;;;4374094;32;20122;-69
2021/07/14 12:58:16;;;;;;;3.80;2.50;;;30.20;28.20;;;;;;4376450;32;20069;-66
2021/07/14 13:00:45;;;;;;;3.65;2.80;;;30.20;28.10;;;;;;4368295;32;20116;-73
2021/07/14 13:03:17;;;;;;;6.20;2.87;;;30.10;28.10;;;;;;4382851;32;20094;-73
2021/07/14 13:05:43;;;;;;;3.15;2.53;;;30.10;27.90;;;;;;4364391;32;20134;-73
2021/07/14 13:08:35;;;;;;;4.85;3.10;;;30.30;27.80;;;;;;4362071;32;20097;-77
2021/07/14 13:11:04;;;;;;;7.93;3.30;;;30.50;26.70;;;;;;4366934;32;20053;-74
2021/07/14 13:13:32;;;;;;;6.12;2.92;;;30.50;27.60;;;;;;4364620;32;20081;-74
2021/07/14 13:16:01;;;;;;;3.03;2.72;;;30.00;27.50;;;;;;4366506;32;20101;-75
2021/07/14 13:18:40;;;;;;;4.30;2.72;;;30.00;27.90;;;;;;4350808;32;20085;-74
2021/07/14 13:21:06;;;;;;;4.93;3.03;;;30.00;27.80;;;;;;4381314;32;20101;-73
2021/07/14 13:23:35;;;;;;;4.53;3.00;;;30.10;27.80;;;;;;4381592;32;20495;-71
2021/07/14 13:26:01;;;;;;;5.05;2.90;;;30.10;27.90;;;;;;4349336;32;20141;-77
2021/07/14 13:28:35;;;;;;;4.78;2.95;;;30.40;27.80;;;;;;4395761;32;20121;-73
2021/07/14 13:31:08;;;;;;;8.05;2.92;;;29.70;28.70;;;;;;4372798;32;20053;-74
2021/07/14 13:33:34;;;;;;;6.07;2.87;;;29.60;29.10;;;;;;4378051;32;20069;-73
2021/07/14 13:36:03;;;;;;;4.45;2.90;;;30.10;28.50;;;;;;4394456;32;20150;-73
2021/07/14 13:38:56;;;;;;;6.28;3.35;;;30.10;28.70;;;;;;4394863;32;20058;-79
2021/07/14 13:41:32;;;;;;;5.82;3.20;;;29.90;27.90;;;;;;4385604;32;20070;-76
2021/07/14 13:44:28;;;;;;;3.55;2.75;;;30.30;27.60;;;;;;4371273;32;20081;-77
2021/07/14 13:46:57;;;;;;;5.20;2.77;;;30.00;27.90;;;;;;4399065;32;20082;-79
2021/07/14 13:49:24;;;;;;;5.15;2.87;;;29.90;28.30;;;;;;4379461;32;20070;-78
2021/07/14 13:51:53;;;;;;;6.18;3.20;;;29.70;28.90;;;;;;4379541;32;20081;-74
2021/07/14 13:54:27;;;;;;;3.58;2.90;;;29.90;28.50;;;;;;4398448;32;20061;-73
2021/07/14 13:57:01;;;;;;;5.40;2.95;;;30.10;28.80;;;;;;4366218;32;20069;-75
2021/07/14 13:59:37;;;;;;;4.97;2.72;;;30.20;28.70;;;;;;4369901;32;20080;-75
2021/07/14 14:02:10;;;;;;;3.35;2.70;;;30.10;29.00;;;;;;4367294;32;20074;-74
2021/07/14 14:04:47;;;;;;;5.75;3.42;;;30.20;29.00;;;;;;4381835;32;20095;-80
2021/07/14 14:07:16;;;;;;;3.97;3.00;;;29.80;29.50;;;;;;4366962;32;20089;-80
2021/07/14 14:10:05;;;;;;;4.25;2.80;;;29.80;29.60;;;;;;4380876;32;20089;-80
2021/07/14 14:12:56;;;;;;;4.30;3.05;;;30.10;28.80;;;;;;4361875;32;20069;-78
2021/07/14 14:15:31;;;;;;;5.00;3.05;;;29.80;29.20;;;;;;4365045;32;20134;-77
2021/07/14 14:17:58;;;;;;;5.25;3.10;;;29.70;29.80;;;;;;4354922;32;20109;-76
2021/07/14 14:20:30;;;;;;;5.32;3.00;;;29.60;29.60;;;;;;4338840;32;20081;-75
2021/07/14 14:22:59;;;;;;;4.72;3.08;;;29.70;30.00;;;;;;4349766;32;20102;-75
2021/07/14 14:25:28;;;;;;;5.60;2.62;;;29.90;29.30;;;;;;4341405;32;20207;-76
2021/07/14 14:30:49;;;;;;;5.40;3.15;;;29.90;29.70;;;;;;4374865;32;20068;-74
2021/07/14 14:33:15;;;;;;;5.68;2.95;;;29.80;29.80;;;;;;4378833;32;20078;-75
2021/07/14 14:35:42;;;;;;;4.72;2.58;;;29.70;29.80;;;;;;4354290;32;20538;-76
2021/07/14 14:38:13;;;;;;;4.47;3.10;;;29.80;30.00;;;;;;4363055;32;20225;-76
2021/07/14 14:40:42;;;;;;;4.45;2.60;;;29.70;29.30;;;;;;4343435;32;20085;-76
2021/07/14 14:43:09;;;;;;;5.15;3.10;;;29.40;29.50;;;;;;4353043;32;20149;-77
2021/07/14 14:45:35;;;;;;;4.00;2.92;;;29.60;29.60;;;;;;4355153;32;20160;-73
2021/07/14 14:48:02;;;;;;;5.50;2.95;;;29.70;29.30;;;;;;4366970;32;20484;-74
2021/07/14 14:50:28;;;;;;;4.32;2.80;;;29.50;29.70;;;;;;4362113;32;20120;-76
2021/07/14 14:52:55;;;;;;;5.87;3.25;;;29.50;29.80;;;;;;4362578;32;20100;-75
2021/07/14 14:55:21;;;;;;;5.03;2.97;;;29.70;29.70;;;;;;4349962;32;20132;-76
2021/07/14 14:57:47;;;;;;;4.50;2.90;;;29.60;30.90;;;;;;4370224;32;20501;-73
2021/07/14 15:00:16;;;;;;;4.25;3.10;;;29.30;31.30;;;;;;4372214;32;20073;-75
2021/07/14 15:02:42;;;;;;;4.82;3.00;;;29.30;30.50;;;;;;4383845;32;20074;-76
2021/07/14 15:05:09;;;;;;;3.97;3.08;;;29.20;30.40;;;;;;4356557;32;20475;-72
2021/07/14 15:07:35;;;;;;;4.50;2.70;;;29.10;31.30;;;;;;4359071;32;20101;-74
2021/07/14 15:10:03;;;;;;;4.10;3.12;;;28.90;31.10;;;;;;4378303;32;20555;-71
2021/07/14 15:12:29;;;;;;;4.12;3.00;;;28.80;30.90;;;;;;4357277;32;20191;-76
2021/07/14 15:14:55;;;;;;;4.53;2.95;;;28.90;31.30;;;;;;4352868;32;20616;-72
2021/07/14 15:17:23;;;;;;;4.57;2.92;;;28.70;31.90;;;;;;4376712;32;20156;-73
2021/07/14 15:19:50;;;;;;;4.85;3.17;;;28.60;32.70;;;;;;4356003;32;20156;-77
2021/07/14 15:22:18;;;;;;;4.53;3.47;;;28.60;32.40;;;;;;4363489;32;20109;-72
2021/07/14 15:24:48;;;;;;;3.80;2.83;;;28.60;32.80;;;;;;4366620;32;20073;-71
2021/07/14 15:29:59;;;;;;;6.32;3.35;;;28.40;33.40;;;;;;4368099;32;21128;-75
2021/07/14 15:32:25;;;;;;;4.70;3.55;;;28.40;34.10;;;;;;4364164;32;20058;-75
2021/07/14 15:34:51;;;;;;;6.85;3.60;;;28.40;34.70;;;;;;4379054;32;20109;-77
2021/07/14 15:37:18;;;;;;;6.60;3.92;;;28.40;35.30;;;;;;4363791;32;20184;-77
2021/07/14 15:39:44;;;;;;;7.72;4.75;;;28.30;36.50;;;;;;4379045;32;20092;-76
2021/07/14 15:42:10;;;;;;;8.48;4.90;;;28.20;37.90;;;;;;4356024;32;20087;-75
2021/07/14 15:44:36;;;;;;;8.13;4.90;;;28.10;38.90;;;;;;4366872;32;20093;-75
2021/07/14 15:47:03;;;;;;;12.37;4.50;;;28.10;40.00;;;;;;4371663;32;20105;-77
2021/07/14 15:49:29;;;;;;;9.35;4.80;;;28.20;40.60;;;;;;4362063;32;20495;-74
2021/07/14 15:51:55;;;;;;;7.97;4.72;;;28.10;41.20;;;;;;4364669;32;20074;-77
2021/07/14 15:54:21;;;;;;;7.90;4.80;;;28.00;41.50;;;;;;4354593;32;20482;-78
2021/07/14 15:56:47;;;;;;;9.48;4.80;;;28.00;41.70;;;;;;4371868;32;20121;-74
2021/07/14 15:59:14;;;;;;;6.30;4.65;;;28.00;42.40;;;;;;4369998;32;20520;-72
2021/07/14 16:01:40;;;;;;;8.60;4.87;;;28.00;42.80;;;;;;4368895;32;20077;-72
2021/07/14 16:04:06;;;;;;;7.37;4.47;;;28.00;43.40;;;;;;4354795;32;20094;-76
2021/07/14 16:06:33;;;;;;;6.55;4.32;;;27.90;44.00;;;;;;4357825;32;20072;-75
2021/07/14 16:08:59;;;;;;;9.98;5.00;;;27.90;44.30;;;;;;4363654;32;20073;-70
2021/07/14 16:11:27;;;;;;;7.30;4.72;;;27.90;44.20;;;;;;4353303;32;20073;-70
2021/07/14 16:13:53;;;;;;;10.05;4.15;;;27.90;44.20;;;;;;4367305;32;20073;-70
2021/07/14 16:16:20;;;;;;;6.22;4.00;;;27.90;44.30;;;;;;4377750;32;20072;-70
2021/07/14 16:18:48;;;;;;;7.57;4.05;;;27.80;44.10;;;;;;4341879;32;20169;-70
2021/07/14 16:21:15;;;;;;;9.63;4.45;;;27.80;44.30;;;;;;4367155;32;20062;-70
2021/07/14 16:23:41;;;;;;;6.80;4.20;;;27.80;44.40;;;;;;4379482;32;20065;-70
2021/07/14 16:26:07;;;;;;;10.07;4.47;;;27.70;44.40;;;;;;4366929;32;20070;-70
2021/07/14 16:28:34;;;;;;;8.02;4.80;;;27.70;44.30;;;;;;4378959;32;20141;-70
2021/07/14 16:31:00;;;;;;;8.75;4.25;;;27.60;44.40;;;;;;4354078;32;20174;-69
2021/07/14 16:33:28;;;;;;;6.95;4.65;;;27.70;44.30;;;;;;4355315;32;20515;-70
2021/07/14 16:35:54;;;;;;;8.88;5.22;;;27.60;44.80;;;;;;4379081;32;20077;-69
2021/07/14 16:38:20;;;;;;;9.23;5.90;;;27.60;44.90;;;;;;4366585;32;20153;-69
2021/07/14 16:40:47;;;;;;;7.82;5.03;;;27.50;45.30;;;;;;4366400;32;20081;-70
2021/07/14 16:43:13;;;;;;;9.38;6.10;;;27.50;45.60;;;;;;4392962;32;20166;-70
2021/07/14 16:45:40;;;;;;;11.00;5.43;;;27.40;45.60;;;;;;4353595;32;20543;-69
2021/07/14 16:48:06;;;;;;;12.05;6.03;;;27.40;46.00;;;;;;4379506;32;20123;-70
2021/07/14 16:50:33;;;;;;;11.05;5.82;;;27.30;46.00;;;;;;4384026;32;20077;-69
2021/07/14 16:53:00;;;;;;;10.20;5.97;;;27.20;46.40;;;;;;4362518;32;20082;-70
2021/07/14 16:55:28;;;;;;;11.60;5.60;;;27.10;46.50;;;;;;4355642;32;20081;-70
2021/07/14 16:57:54;;;;;;;7.50;4.80;;;27.10;46.70;;;;;;4354852;32;20129;-69
2021/07/14 17:00:21;;;;;;;11.55;5.65;;;27.00;46.90;;;;;;4342022;32;20074;-71
2021/07/14 17:02:47;;;;;;;9.75;5.95;;;27.00;47.50;;;;;;4379095;32;20118;-70
2021/07/14 17:05:14;;;;;;;12.15;6.62;;;26.90;48.70;;;;;;4392833;32;20504;-70
2021/07/14 17:07:42;;;;;;;11.00;6.45;;;26.80;47.70;;;;;;4353451;32;20154;-70
2021/07/14 17:10:10;;;;;;;10.63;5.72;;;26.80;48.30;;;;;;4366876;32;20082;-70
2021/07/14 17:12:36;;;;;;;10.98;6.15;;;26.80;48.80;;;;;;4366698;32;20093;-70
2021/07/14 17:15:05;;;;;;;12.20;7.00;;;26.70;49.20;;;;;;4353755;32;20085;-70
2021/07/14 17:17:31;;;;;;;12.80;7.82;;;26.60;49.90;;;;;;4354205;32;20528;-69
2021/07/14 17:19:57;;;;;;;14.70;8.13;;;26.50;50.50;;;;;;4353476;32;20178;-70
2021/07/14 17:22:24;;;;;;;14.38;8.15;;;26.40;51.00;;;;;;4353735;32;20101;-70
2021/07/14 17:24:56;;;;;;;18.12;9.32;;;26.30;51.80;;;;;;4378037;32;20158;-69
2021/07/14 17:27:23;;;;;;;21.37;10.55;;;26.00;53.40;;;;;;4377272;32;20551;-70
2021/07/14 17:29:50;;;;;;;17.25;10.65;;;25.80;54.80;;;;;;4378179;32;20066;-69
2021/07/14 17:32:16;;;;;;;19.95;10.60;;;25.70;55.80;;;;;;4353491;32;20066;-70
2021/07/14 17:34:44;;;;;;;16.40;10.82;;;25.70;56.60;;;;;;4340830;32;20081;-69
2021/07/14 17:37:11;;;;;;;18.65;10.25;;;25.60;57.10;;;;;;4354116;32;20078;-70
2021/07/14 17:39:38;;;;;;;18.50;10.15;;;25.60;57.70;;;;;;4366031;32;20089;-71
2021/07/14 17:42:06;;;;;;;16.42;8.82;;;25.50;58.30;;;;;;4365876;32;20078;-70
2021/07/14 17:44:32;;;;;;;15.48;8.68;;;25.40;58.50;;;;;;4353257;32;20165;-70
2021/07/14 17:46:58;;;;;;;15.90;9.35;;;25.40;59.00;;;;;;4353024;32;20078;-69
2021/07/14 17:49:25;;;;;;;16.48;9.25;;;25.30;59.30;;;;;;4353102;32;20105;-69
2021/07/14 17:51:53;;;;;;;15.60;7.95;;;25.10;61.60;;;;;;4366029;32;20167;-69
2021/07/14 17:54:19;;;;;;;14.85;7.70;;;25.10;61.40;;;;;;4365515;32;20214;-69
2021/07/14 17:56:46;;;;;;;14.30;6.90;;;25.00;61.40;;;;;;4353348;32;20085;-70
2021/07/14 17:59:13;;;;;;;12.00;6.43;;;24.90;61.80;;;;;;4365478;32;20070;-69
2021/07/14 18:01:39;;;;;;;11.95;5.90;;;24.80;62.60;;;;;;4365483;32;20065;-71
2021/07/14 18:04:06;;;;;;;13.98;8.05;;;24.70;62.10;;;;;;4365798;32;20079;-70
2021/07/14 18:06:33;;;;;;;16.95;8.18;;;24.70;62.30;;;;;;4377299;32;20496;-69
2021/07/14 18:08:59;;;;;;;13.43;6.40;;;24.60;62.90;;;;;;4352996;32;20078;-70
2021/07/14 18:11:25;;;;;;;11.55;6.78;;;24.50;63.40;;;;;;4352825;32;20080;-71
2021/07/14 18:13:52;;;;;;;12.60;6.20;;;24.50;63.30;;;;;;4352583;32;20073;-70
2021/07/14 18:16:18;;;;;;;10.18;7.28;;;24.40;63.90;;;;;;4365465;32;20459;-69
2021/07/14 18:18:44;;;;;;;11.77;7.03;;;24.40;63.40;;;;;;4377630;32;20140;-69
2021/07/14 18:21:11;;;;;;;9.98;5.87;;;24.30;65.60;;;;;;4365175;32;20150;-70
2021/07/14 18:23:37;;;;;;;9.35;5.93;;;24.30;65.50;;;;;;4377254;32;20105;-71
2021/07/14 18:26:07;;;;;;;9.45;5.85;;;24.20;66.40;;;;;;4377624;32;20062;-70
2021/07/14 18:28:37;;;;;;;6.85;5.22;;;24.10;65.80;;;;;;4366194;32;20070;-70
2021/07/14 18:31:05;;;;;;;11.88;5.93;;;24.00;65.80;;;;;;4364876;32;20078;-69
2021/07/14 18:33:33;;;;;;;10.05;5.85;;;24.00;63.70;;;;;;4352259;32;20536;-69
2021/07/14 18:36:00;;;;;;;9.73;5.40;;;24.00;64.00;;;;;;4365257;32;20074;-69
2021/07/14 18:38:27;;;;;;;9.60;5.78;;;24.00;64.50;;;;;;4353081;32;20065;-70
2021/07/14 18:40:53;;;;;;;10.35;6.32;;;23.90;64.20;;;;;;4353049;32;20062;-69
2021/07/14 18:43:21;;;;;;;10.95;6.22;;;23.80;64.20;;;;;;4352887;32;20085;-69
2021/07/14 18:45:47;;;;;;;8.88;5.43;;;24.00;62.70;;;;;;4364859;32;20101;-70
2021/07/14 18:48:14;;;;;;;12.25;6.05;;;24.00;62.60;;;;;;4364854;32;20073;-70
2021/07/14 18:50:41;;;;;;;9.65;4.90;;;24.20;58.90;;;;;;4352846;32;20078;-69
2021/07/14 18:53:08;;;;;;;14.00;6.40;;;24.20;59.70;;;;;;4365711;32;20069;-70
2021/07/14 18:55:35;;;;;;;10.20;5.72;;;24.20;58.30;;;;;;4364786;32;20085;-70
2021/07/14 18:58:01;;;;;;;8.88;5.55;;;24.10;59.40;;;;;;4352938;32;20167;-69
2021/07/14 19:00:29;;;;;;;8.30;5.50;;;24.10;59.10;;;;;;4364551;32;20116;-70
2021/07/14 19:02:56;;;;;;;9.38;5.53;;;24.00;59.70;;;;;;4352571;32;20085;-69
2021/07/14 19:05:22;;;;;;;10.05;5.97;;;24.00;59.30;;;;;;4377556;32;20080;-70
2021/07/14 19:07:48;;;;;;;10.35;5.65;;;24.00;59.10;;;;;;4364829;32;20086;-70
2021/07/14 19:10:18;;;;;;;8.43;4.97;;;23.90;57.00;;;;;;4377919;32;20154;-69
2021/07/14 19:12:45;;;;;;;9.68;5.82;;;24.10;53.20;;;;;;4365311;32;20480;-70
2021/07/14 19:15:12;;;;;;;9.65;5.53;;;24.10;55.80;;;;;;4364970;32;20082;-68
2021/07/14 19:17:38;;;;;;;10.60;5.28;;;24.10;53.70;;;;;;4377031;32;20436;-70
2021/07/14 19:20:07;;;;;;;8.45;5.47;;;24.10;52.90;;;;;;4365011;32;20522;-69
2021/07/14 19:22:34;;;;;;;9.77;5.85;;;24.20;51.40;;;;;;4377399;32;20070;-70
2021/07/14 19:25:00;;;;;;;8.05;5.25;;;24.10;51.50;;;;;;4365042;32;20061;-70
2021/07/14 19:27:26;;;;;;;7.00;5.10;;;24.00;51.80;;;;;;4381061;32;20078;-69
2021/07/14 19:29:52;;;;;;;8.73;4.50;;;24.00;51.10;;;;;;4381569;32;20093;-70
2021/07/14 19:32:19;;;;;;;12.20;5.12;;;23.90;51.00;;;;;;4369157;32;20068;-69
2021/07/14 19:34:45;;;;;;;7.57;4.22;;;23.90;50.40;;;;;;4369540;32;20050;-70
2021/07/14 19:37:11;;;;;;;7.40;4.45;;;23.80;49.50;;;;;;4368620;32;20077;-69
2021/07/14 19:39:38;;;;;;;6.82;3.83;;;23.80;48.60;;;;;;4356668;32;20158;-70
2021/07/14 19:42:05;;;;;;;8.55;4.62;;;23.80;47.60;;;;;;4370184;32;20075;-69
2021/07/14 19:44:32;;;;;;;7.93;4.18;;;23.80;47.60;;;;;;4371587;32;20142;-70
2021/07/14 19:46:59;;;;;;;7.40;3.55;;;23.80;47.00;;;;;;4351804;32;20603;-70